Forest, Mississippi
Current Conditions -  °F | °C
As of 2:54 PM on Saturday 22 Nov 2014 (Local Time) from KJAN Reporting Station
Broken Clouds Broken Clouds  
Wind Chill: 70°   Ceiling: 11000
Heat Index: 70°   Visibility: 10mi
Dew Point: 49°   Wind: 12mph
Humidity: 47%   Direction: 130°SE
Pressure: 30.07"   Gusts: NA
Location:  32.36°N, 89.47°W
Report Text: KJAN 222054Z 13010KT 10SM BKN110 21/09 A3007 RMK AO2 SLP181 T02110094 56033
Loading
Personal Weather Stations






























Interactive Weather Map New forecast layout! Learn more

10-Day Weather Forecast

Advertisements
Track Severe Weather on mobile